Time;durP1;ratioP1;P1;durP2;ratioP2;P2;SDS_P1;SDS_P2;PMS_P1;PMS_P2;Temp;Humidity;BMP_temperature;BMP_pressure;BME280_temperature;BME280_humidity;BME280_pressure;Samples;Min_cycle;Max_cycle;Signal;HPM_P1;HPM_P2
2022/10/18 00:00:46;;;;;;;22.59;20.79;;;;;;;5.09;66.73;102591.70;457379;115;922515;-77
2022/10/18 00:01:50;;;;;;;21.12;19.66;;;;;;;5.07;66.67;102599.11;457321;116;923016;-76
2022/10/18 00:02:53;;;;;;;22.76;21.01;;;;;;;5.07;66.63;102585.59;457242;115;922653;-78
2022/10/18 00:03:55;;;;;;;22.07;20.39;;;;;;;5.04;66.56;102594.81;457383;115;922509;-78
2022/10/18 00:04:58;;;;;;;22.83;21.18;;;;;;;5.03;66.46;102593.95;457380;116;923474;-77
2022/10/18 00:06:02;;;;;;;22.79;21.01;;;;;;;5.01;66.48;102598.65;457314;114;922924;-78
2022/10/18 00:07:05;;;;;;;21.85;20.15;;;;;;;5.00;66.42;102593.36;457242;115;922551;-77
2022/10/18 00:08:08;;;;;;;23.55;21.76;;;;;;;4.99;66.40;102597.91;457339;116;922951;-78
2022/10/18 00:09:11;;;;;;;21.54;19.94;;;;;;;4.98;66.37;102598.03;457385;116;922516;-77
2022/10/18 00:10:15;;;;;;;21.69;19.97;;;;;;;4.97;66.39;102590.90;457276;115;922473;-78
2022/10/18 00:11:17;;;;;;;23.06;21.14;;;;;;;4.97;66.40;102596.30;457425;114;922725;-78
2022/10/18 00:12:20;;;;;;;22.30;20.38;;;;;;;4.96;66.37;102589.21;457472;115;922480;-78
2022/10/18 00:13:23;;;;;;;21.77;20.15;;;;;;;4.96;66.33;102594.62;457467;115;922742;-78
2022/10/18 00:14:26;;;;;;;20.00;18.60;;;;;;;4.94;66.24;102594.73;457432;116;922606;-77
2022/10/18 00:15:29;;;;;;;20.25;18.64;;;;;;;4.94;66.21;102588.47;457392;116;922963;-77
2022/10/18 00:16:32;;;;;;;21.59;19.97;;;;;;;4.92;66.14;102599.41;457266;115;922538;-77
2022/10/18 00:17:37;;;;;;;20.43;18.71;;;;;;;4.91;66.12;102591.41;457421;116;922485;-77
2022/10/18 00:18:40;;;;;;;21.14;19.51;;;;;;;4.90;66.17;102597.83;457619;116;922392;-77
2022/10/18 00:19:44;;;;;;;19.25;17.71;;;;;;;4.89;66.21;102596.11;457624;116;922389;-76
2022/10/18 00:20:55;;;;;;;18.60;17.30;;;;;;;4.88;66.22;102592.55;457702;116;922250;-77
2022/10/18 00:21:58;;;;;;;19.13;17.42;;;;;;;4.87;66.31;102590.82;455596;116;922585;-77
2022/10/18 00:23:01;;;;;;;19.96;18.48;;;;;;;4.85;66.24;102595.48;457243;116;922576;-77
2022/10/18 00:24:05;;;;;;;18.85;17.32;;;;;;;4.84;66.31;102590.23;457235;116;922527;-77
2022/10/18 00:25:09;;;;;;;17.91;16.59;;;;;;;4.83;66.43;102585.81;457272;116;922469;-77
2022/10/18 00:26:15;;;;;;;18.59;17.15;;;;;;;4.82;66.48;102584.95;457408;116;922536;-76
2022/10/18 00:27:18;;;;;;;18.72;17.13;;;;;;;4.83;66.44;102583.11;457146;116;922538;-78
2022/10/18 00:28:21;;;;;;;18.36;17.07;;;;;;;4.81;66.52;102577.82;457153;116;923050;-78
2022/10/18 00:29:24;;;;;;;19.06;17.61;;;;;;;4.82;66.53;102579.55;457214;116;922802;-78
2022/10/18 00:30:28;;;;;;;16.89;15.66;;;;;;;4.82;66.67;102584.09;458636;115;923104;-76
2022/10/18 00:31:34;;;;;;;16.64;15.51;;;;;;;4.83;66.74;102588.52;458581;115;922644;-76
2022/10/18 00:32:38;;;;;;;16.49;15.08;;;;;;;4.82;66.76;102579.55;457164;116;922567;-77
2022/10/18 00:33:43;;;;;;;15.47;14.41;;;;;;;4.84;66.87;102576.72;456227;114;922825;-78
2022/10/18 00:34:46;;;;;;;15.54;14.31;;;;;;;4.85;66.82;102573.03;449378;117;922913;-77
2022/10/18 00:35:49;;;;;;;15.28;14.25;;;;;;;4.87;66.91;102573.75;449553;116;922566;-77
2022/10/18 00:36:53;;;;;;;14.93;13.73;;;;;;;4.89;66.91;102579.89;449546;117;922426;-77
2022/10/18 00:37:56;;;;;;;14.72;13.62;;;;;;;4.89;66.98;102569.08;449401;117;922584;-77
2022/10/18 00:39:01;;;;;;;13.82;12.73;;;;;;;4.90;67.02;102579.77;449515;117;922902;-78
2022/10/18 00:40:04;;;;;;;14.51;13.22;;;;;;;4.91;67.02;102580.59;449439;118;922602;-77
2022/10/18 00:41:10;;;;;;;15.27;13.77;;;;;;;4.92;66.98;102579.62;449421;116;922776;-77
2022/10/18 00:42:18;;;;;;;13.82;12.83;;;;;;;4.92;66.99;102574.21;449366;118;922563;-77
2022/10/18 00:43:21;;;;;;;13.43;12.43;;;;;;;4.90;66.98;102574.37;449344;118;922593;-77
2022/10/18 00:44:28;;;;;;;14.23;13.10;;;;;;;4.90;66.90;102573.50;449548;117;922568;-77
2022/10/18 00:45:31;;;;;;;15.52;14.02;;;;;;;4.90;66.91;102574.37;448725;117;922985;-78
2022/10/18 00:46:37;;;;;;;14.61;13.46;;;;;;;4.89;66.93;102566.38;446982;116;922971;-77
2022/10/18 00:47:41;;;;;;;14.12;13.16;;;;;;;4.90;66.98;102573.50;446816;118;922651;-77
2022/10/18 00:48:44;;;;;;;13.82;12.78;;;;;;;4.89;67.06;102577.19;446891;118;922985;-77
2022/10/18 00:49:51;;;;;;;15.02;13.75;;;;;;;4.89;67.00;102563.67;446977;118;922578;-77
2022/10/18 00:50:54;;;;;;;15.13;13.91;;;;;;;4.87;66.98;102571.91;446804;116;922735;-78
2022/10/18 00:52:03;;;;;;;15.07;13.91;;;;;;;4.87;66.94;102569.20;449775;117;922893;-78
2022/10/18 00:53:10;;;;;;;14.42;13.36;;;;;;;4.87;67.04;102571.04;451461;117;923973;-78
2022/10/18 00:54:15;;;;;;;14.58;13.44;;;;;;;4.85;66.98;102575.73;452492;116;922580;-77
2022/10/18 00:55:19;;;;;;;13.79;12.43;;;;;;;4.85;67.07;102575.73;454489;116;922913;-78
2022/10/18 00:56:22;;;;;;;13.39;12.39;;;;;;;4.84;67.12;102574.02;454636;114;922574;-78
2022/10/18 00:57:25;;;;;;;13.51;12.13;;;;;;;4.82;67.10;102574.14;454704;116;922476;-77
2022/10/18 00:58:28;;;;;;;14.19;12.97;;;;;;;4.82;67.18;102571.44;454690;116;922488;-77
2022/10/18 00:59:32;;;;;;;13.64;12.73;;;;;;;4.83;67.31;102572.30;454742;116;922603;-77
2022/10/18 01:00:38;;;;;;;13.09;12.11;;;;;;;4.83;67.28;102573.16;454627;116;922525;-78
2022/10/18 01:01:40;;;;;;;11.99;11.11;;;;;;;4.83;67.28;102567.75;454508;114;922968;-76
2022/10/18 01:02:45;;;;;;;12.89;11.99;;;;;;;4.84;67.27;102574.88;454665;116;922490;-76
2022/10/18 01:03:49;;;;;;;12.59;11.69;;;;;;;4.85;67.25;102567.62;454474;116;922777;-78
2022/10/18 01:04:52;;;;;;;12.66;11.69;;;;;;;4.84;67.31;102566.77;454563;116;922532;-79
2022/10/18 01:05:56;;;;;;;13.38;12.19;;;;;;;4.85;67.30;102563.05;454627;114;930597;-77
2022/10/18 01:07:02;;;;;;;13.96;12.72;;;;;;;4.87;67.38;102571.91;454702;116;922510;-76
2022/10/18 01:08:17;;;;;;;13.38;12.42;;;;;;;4.87;67.32;102565.64;454319;116;922961;-77
2022/10/18 01:09:24;;;;;;;13.10;12.10;;;;;;;4.85;67.37;102564.93;454515;116;922564;-76
2022/10/18 01:10:36;;;;;;;15.08;13.84;;;;;;;4.85;67.30;102570.33;454241;116;923480;-78
2022/10/18 01:11:49;;;;;;;14.70;13.49;;;;;;;4.85;67.64;102573.03;454645;114;922620;-77
2022/10/18 01:13:12;;;;;;;13.84;12.73;;;;;;;4.85;67.64;102573.03;454516;116;922534;-78
2022/10/18 01:14:27;;;;;;;15.09;13.98;;;;;;;4.85;67.56;102581.97;449715;118;922877;-78
2022/10/18 01:15:50;;;;;;;14.47;13.41;;;;;;;4.96;67.50;102568.41;493727;107;925882;-78
2022/10/18 01:17:09;;;;;;;16.17;14.72;;;;;;;4.84;67.44;102574.02;464613;114;922723;-75
2022/10/18 01:18:18;;;;;;;15.91;14.49;;;;;;;4.82;67.40;102571.44;464457;114;922508;-76
2022/10/18 01:19:34;;;;;;;16.49;15.12;;;;;;;4.82;67.47;102575.98;464590;114;922461;-77
2022/10/18 01:20:55;;;;;;;16.18;14.79;;;;;;;4.81;67.62;102568.85;464625;114;922951;-77
2022/10/18 01:22:08;;;;;;;16.31;15.11;;;;;;;4.80;67.57;102570.69;464707;114;922476;-77
2022/10/18 01:23:31;;;;;;;17.41;16.00;;;;;;;4.81;67.54;102568.85;464639;114;922478;-77
2022/10/18 01:24:49;;;;;;;16.79;15.36;;;;;;;4.81;67.57;102566.15;464603;114;922494;-76
2022/10/18 01:26:12;;;;;;;15.91;14.74;;;;;;;4.78;67.54;102566.42;464600;114;922596;-77
2022/10/18 01:27:25;;;;;;;16.81;15.37;;;;;;;4.79;67.60;102568.14;464620;114;923114;-77
2022/10/18 01:29:05;;;;;;;17.60;16.14;;;;;;;4.78;67.66;102566.42;464646;114;922527;-79
2022/10/18 01:30:37;;;;;;;16.13;14.89;;;;;;;4.77;67.53;102567.41;469425;112;922861;-78
2022/10/18 01:31:46;;;;;;;15.97;14.77;;;;;;;4.76;67.56;102565.68;473874;111;922522;-77
2022/10/18 01:32:56;;;;;;;15.79;14.42;;;;;;;4.74;67.60;102562.27;475261;111;922576;-76
2022/10/18 01:34:05;;;;;;;17.04;15.79;;;;;;;4.72;67.62;102565.09;477320;110;922489;-77
2022/10/18 01:35:12;;;;;;;16.52;15.24;;;;;;;4.73;67.67;102560.55;480926;110;922870;-78
2022/10/18 01:36:22;;;;;;;17.49;16.11;;;;;;;4.74;67.64;102564.97;480913;110;922496;-78
2022/10/18 01:37:27;;;;;;;15.96;14.69;;;;;;;4.74;67.69;102560.39;480923;110;922906;-77
2022/10/18 01:38:32;;;;;;;16.84;15.44;;;;;;;4.76;67.53;102562.98;480960;110;922688;-76
2022/10/18 01:39:39;;;;;;;16.90;15.19;;;;;;;4.76;67.54;102560.28;480952;110;922642;-77
2022/10/18 01:40:45;;;;;;;16.18;15.04;;;;;;;4.77;67.38;102562.00;480944;110;922495;-78
2022/10/18 01:41:50;;;;;;;15.69;14.47;;;;;;;4.77;67.70;102562.86;481010;110;922524;-78
2022/10/18 01:42:54;;;;;;;16.22;14.99;;;;;;;4.77;67.70;102562.86;480966;110;922490;-79
2022/10/18 01:43:59;;;;;;;16.55;15.26;;;;;;;4.79;67.64;102558.20;481046;110;922490;-77
2022/10/18 01:45:06;;;;;;;16.31;15.02;;;;;;;4.82;67.73;102557.92;480911;110;930466;-77
2022/10/18 01:46:13;;;;;;;16.96;15.42;;;;;;;4.86;67.72;102553.10;480958;110;922976;-76
2022/10/18 01:47:17;;;;;;;17.02;15.66;;;;;;;4.87;67.72;102555.69;480965;110;922836;-76
2022/10/18 01:48:20;;;;;;;17.18;15.66;;;;;;;4.90;67.73;102559.98;481080;110;922486;-77
2022/10/18 01:49:24;;;;;;;16.80;15.52;;;;;;;4.90;67.68;102543.77;481076;110;922497;-78
2022/10/18 01:50:33;;;;;;;16.12;14.90;;;;;;;4.91;67.63;102551.73;480772;110;922840;-77
2022/10/18 01:51:36;;;;;;;17.57;16.21;;;;;;;4.92;67.52;102549.88;478726;110;922464;-76
2022/10/18 01:52:49;;;;;;;16.87;15.37;;;;;;;4.92;67.41;102549.88;475494;111;922534;-76
2022/10/18 01:53:52;;;;;;;15.84;14.64;;;;;;;4.91;67.30;102548.16;475303;111;922644;-76
2022/10/18 01:54:57;;;;;;;15.46;14.04;;;;;;;4.89;67.27;102544.75;475454;111;922872;-77
2022/10/18 01:56:19;;;;;;;15.67;14.43;;;;;;;4.87;67.32;102541.31;475394;111;922912;-78
2022/10/18 01:57:29;;;;;;;16.68;15.48;;;;;;;4.87;67.33;102546.72;475026;111;922640;-77
2022/10/18 01:58:47;;;;;;;17.56;15.87;;;;;;;4.83;67.22;102548.83;475521;111;922509;-77
2022/10/18 01:59:57;;;;;;;15.89;14.70;;;;;;;4.83;67.25;102550.67;474761;111;922802;-77
2022/10/18 02:01:10;;;;;;;16.88;14.58;;;;;;;4.81;67.31;102549.94;475301;111;922928;-75
2022/10/18 02:02:19;;;;;;;17.02;15.69;;;;;;;4.80;67.33;102546.38;474751;111;922649;-77
2022/10/18 02:03:25;;;;;;;15.82;14.52;;;;;;;4.80;67.40;102553.62;474614;111;922486;-78
2022/10/18 02:04:44;;;;;;;16.03;14.67;;;;;;;4.79;67.30;102543.82;475347;111;922706;-76
2022/10/18 02:06:02;;;;;;;15.67;14.48;;;;;;;4.79;67.29;102552.79;474893;111;922543;-77
2022/10/18 02:07:09;;;;;;;14.94;13.62;;;;;;;4.79;67.34;102551.93;475279;111;922450;-77
2022/10/18 02:08:31;;;;;;;15.00;13.80;;;;;;;4.78;67.31;102551.06;461438;111;922836;-76
2022/10/18 02:09:41;;;;;;;14.42;13.35;;;;;;;4.77;67.28;102552.05;475229;111;922450;-77
2022/10/18 02:10:48;;;;;;;13.59;12.60;;;;;;;4.77;67.16;102541.23;475090;111;922592;-78
2022/10/18 02:11:53;;;;;;;13.71;12.42;;;;;;;4.77;67.15;102538.54;475231;111;922528;-76
2022/10/18 02:12:58;;;;;;;13.78;12.69;;;;;;;4.76;67.18;102536.81;475225;111;922501;-77
2022/10/18 02:14:07;;;;;;;13.61;12.62;;;;;;;4.77;67.31;102538.54;475294;111;922564;-78
2022/10/18 02:15:14;;;;;;;12.32;11.46;;;;;;;4.77;67.31;102537.67;475266;111;922626;-77
2022/10/18 02:16:23;;;;;;;12.62;11.62;;;;;;;4.77;67.21;102543.08;470459;111;922677;-76
2022/10/18 02:17:29;;;;;;;13.01;11.89;;;;;;;4.77;67.18;102537.67;466766;113;922618;-77
2022/10/18 02:18:35;;;;;;;13.01;12.01;;;;;;;4.77;67.10;102540.38;466762;113;922538;-78
2022/10/18 02:19:45;;;;;;;13.01;11.82;;;;;;;4.77;67.13;102535.83;466759;113;923189;-77
2022/10/18 02:20:48;;;;;;;12.28;11.33;;;;;;;4.76;66.99;102531.41;466777;113;922607;-78
2022/10/18 02:21:53;;;;;;;12.45;11.41;;;;;;;4.75;66.96;102528.83;466870;113;922580;-77
2022/10/18 02:22:59;;;;;;;13.57;12.38;;;;;;;4.75;66.93;102536.94;466724;113;930377;-77
2022/10/18 02:24:04;;;;;;;13.73;12.62;;;;;;;4.75;67.11;102531.53;466794;113;922615;-76
2022/10/18 02:25:11;;;;;;;12.67;11.67;;;;;;;4.75;67.11;102531.53;466816;113;923791;-76
2022/10/18 02:26:15;;;;;;;12.36;11.20;;;;;;;4.74;66.88;102536.08;466727;113;922528;-76
2022/10/18 02:27:18;;;;;;;12.22;11.32;;;;;;;4.72;66.86;102526.40;466792;113;922617;-76
2022/10/18 02:28:21;;;;;;;13.39;12.23;;;;;;;4.73;66.88;102526.28;466840;113;922883;-77
2022/10/18 02:29:24;;;;;;;12.43;11.34;;;;;;;4.73;66.96;102528.13;466859;113;922564;-77
2022/10/18 02:30:34;;;;;;;12.26;11.33;;;;;;;4.74;66.95;102529.84;472742;112;922487;-76
2022/10/18 02:31:40;;;;;;;12.24;11.23;;;;;;;4.74;66.93;102529.84;473653;111;922712;-79
2022/10/18 02:32:59;;;;;;;12.46;11.44;;;;;;;4.73;66.79;102534.39;475156;111;922654;-76
2022/10/18 02:34:17;;;;;;;12.49;11.11;;;;;;;4.72;66.77;102521.86;474957;111;922518;-78
2022/10/18 02:35:26;;;;;;;12.07;11.10;;;;;;;4.70;66.69;102520.25;475113;111;923072;-78
2022/10/18 02:36:39;;;;;;;12.45;11.44;;;;;;;4.70;66.69;102520.25;475204;111;922598;-77
2022/10/18 02:37:44;;;;;;;12.37;11.33;;;;;;;4.70;66.71;102533.77;474340;111;922540;-77
2022/10/18 02:38:49;;;;;;;13.84;12.37;;;;;;;4.68;66.66;102533.06;475244;111;922582;-77
2022/10/18 02:39:52;;;;;;;14.11;12.89;;;;;;;4.67;66.63;102534.90;475094;111;930333;-78
2022/10/18 02:40:55;;;;;;;14.30;13.14;;;;;;;4.67;66.66;102532.20;475303;111;922635;-78
2022/10/18 02:41:58;;;;;;;15.39;14.09;;;;;;;4.67;66.62;102536.73;475333;111;922559;-77
2022/10/18 02:43:03;;;;;;;15.05;13.72;;;;;;;4.67;66.57;102536.73;475302;111;922863;-76
2022/10/18 02:44:06;;;;;;;15.86;14.46;;;;;;;4.66;66.58;102532.31;475204;111;922651;-77
2022/10/18 02:45:10;;;;;;;15.86;14.43;;;;;;;4.65;66.55;102534.16;475440;111;922556;-77
2022/10/18 02:46:13;;;;;;;16.14;14.72;;;;;;;4.65;66.56;102527.89;475230;111;922984;-77
2022/10/18 02:47:17;;;;;;;15.38;14.06;;;;;;;4.65;66.56;102534.16;475241;111;930358;-77
2022/10/18 02:48:20;;;;;;;18.58;16.66;;;;;;;4.66;66.58;102530.48;475405;111;922487;-76
2022/10/18 02:49:23;;;;;;;17.30;15.76;;;;;;;4.66;66.64;102522.38;475410;111;922906;-76
2022/10/18 02:50:26;;;;;;;17.70;16.12;;;;;;;4.65;66.70;102517.09;475426;111;922522;-76
2022/10/18 02:51:29;;;;;;;18.54;16.28;;;;;;;4.66;66.59;102516.11;474816;111;922424;-76
2022/10/18 02:52:32;;;;;;;17.23;15.85;;;;;;;4.65;66.56;102514.39;470928;112;922693;-77
2022/10/18 02:53:35;;;;;;;18.37;16.88;;;;;;;4.63;66.51;102525.34;470930;112;922588;-77
2022/10/18 02:54:38;;;;;;;19.39;17.56;;;;;;;4.61;66.60;102514.66;470934;112;922537;-76
2022/10/18 02:55:41;;;;;;;19.68;18.14;;;;;;;4.61;66.52;102516.50;470788;112;923035;-77
2022/10/18 02:56:44;;;;;;;21.97;20.12;;;;;;;4.61;66.56;102516.50;470783;112;922813;-77
2022/10/18 02:57:47;;;;;;;22.13;18.98;;;;;;;4.59;66.50;102519.32;470828;112;922794;-77
2022/10/18 02:58:50;;;;;;;21.27;19.45;;;;;;;4.59;66.66;102516.62;470831;112;922628;-77
2022/10/18 02:59:53;;;;;;;21.34;19.68;;;;;;;4.59;66.59;102510.36;470855;112;922495;-75
2022/10/18 03:00:56;;;;;;;22.84;20.51;;;;;;;4.59;66.63;102513.05;470792;112;922481;-78
2022/10/18 03:01:59;;;;;;;22.51;20.62;;;;;;;4.58;66.66;102511.33;470885;112;922460;-77
2022/10/18 03:03:02;;;;;;;22.44;20.40;;;;;;;4.57;66.71;102512.34;470857;112;922493;-78
2022/10/18 03:04:05;;;;;;;22.34;20.22;;;;;;;4.57;66.68;102507.80;470860;112;922523;-77
2022/10/18 03:05:08;;;;;;;22.71;20.73;;;;;;;4.56;66.68;102500.69;470911;112;922624;-77
2022/10/18 03:06:12;;;;;;;23.18;21.15;;;;;;;4.56;66.65;102499.82;470741;112;922455;-77
2022/10/18 03:07:15;;;;;;;23.36;21.20;;;;;;;4.55;66.69;102503.50;470838;112;922438;-77
2022/10/18 03:08:19;;;;;;;22.17;20.32;;;;;;;4.54;66.71;102505.34;470911;112;922548;-76
2022/10/18 03:09:21;;;;;;;23.83;21.36;;;;;;;4.54;66.80;102510.75;470918;112;922432;-76
2022/10/18 03:10:24;;;;;;;22.28;20.29;;;;;;;4.54;66.74;102513.45;470886;112;922580;-76
2022/10/18 03:11:27;;;;;;;23.86;21.73;;;;;;;4.55;66.76;102506.20;470835;112;922491;-77
2022/10/18 03:12:30;;;;;;;25.27;22.93;;;;;;;4.54;66.94;102509.89;470873;112;922498;-77
2022/10/18 03:13:33;;;;;;;23.38;21.29;;;;;;;4.54;66.91;102516.16;470936;112;922606;-76
2022/10/18 03:14:36;;;;;;;24.26;21.66;;;;;;;4.54;67.00;102512.59;470863;112;922605;-77
2022/10/18 03:15:40;;;;;;;22.76;20.68;;;;;;;4.54;66.89;102515.29;470798;112;922418;-77
2022/10/18 03:16:43;;;;;;;24.43;21.98;;;;;;;4.54;66.95;102513.45;466821;113;922596;-76
2022/10/18 03:17:46;;;;;;;25.66;21.91;;;;;;;4.54;66.86;102513.45;466902;113;922602;-76
2022/10/18 03:18:49;;;;;;;24.01;21.84;;;;;;;4.54;66.86;102508.05;466875;113;922635;-77
2022/10/18 03:19:52;;;;;;;23.72;21.57;;;;;;;4.53;66.87;102510.87;466883;113;922850;-76
2022/10/18 03:20:55;;;;;;;22.11;20.09;;;;;;;4.53;66.87;102500.06;466881;113;922676;-77
2022/10/18 03:21:58;;;;;;;22.70;20.75;;;;;;;4.53;66.91;102508.16;466867;113;922835;-78
2022/10/18 03:23:02;;;;;;;23.50;21.57;;;;;;;4.52;66.94;102514.58;466882;113;922659;-79
2022/10/18 03:24:05;;;;;;;24.42;21.88;;;;;;;4.53;66.96;102508.16;466824;113;922458;-77
2022/10/18 03:25:08;;;;;;;23.59;21.37;;;;;;;4.52;66.97;102506.48;466775;113;922570;-76
2022/10/18 03:26:11;;;;;;;24.61;22.34;;;;;;;4.52;67.04;102507.30;466837;113;930542;-78
2022/10/18 03:27:14;;;;;;;24.54;22.24;;;;;;;4.53;67.18;102503.63;466918;113;922542;-76
2022/10/18 03:28:18;;;;;;;24.11;21.91;;;;;;;4.54;67.12;102504.48;466825;113;922441;-76
2022/10/18 03:29:21;;;;;;;25.90;23.26;;;;;;;4.55;67.21;102517.01;466938;113;922537;-76
2022/10/18 03:30:24;;;;;;;24.71;22.24;;;;;;;4.54;67.12;102505.34;466973;113;922597;-77
2022/10/18 03:31:27;;;;;;;23.48;21.29;;;;;;;4.56;67.16;102507.92;466120;113;922904;-77
2022/10/18 03:32:30;;;;;;;23.46;21.17;;;;;;;4.56;67.23;102506.09;466883;113;922953;-78
2022/10/18 03:33:33;;;;;;;23.36;21.19;;;;;;;4.57;67.14;102501.55;466891;110;922489;-76
2022/10/18 03:34:36;;;;;;;23.44;21.34;;;;;;;4.58;67.11;102493.28;470811;112;930538;-77
2022/10/18 03:35:39;;;;;;;23.89;21.78;;;;;;;4.58;67.14;102500.53;470853;112;922615;-78
2022/10/18 03:36:42;;;;;;;23.62;21.39;;;;;;;4.58;67.00;102498.69;470844;112;922567;-77
2022/10/18 03:37:46;;;;;;;25.06;22.66;;;;;;;4.58;67.00;102495.13;470899;112;922898;-76
2022/10/18 03:38:49;;;;;;;25.92;23.49;;;;;;;4.57;67.03;102499.70;470903;112;922746;-77
2022/10/18 03:39:52;;;;;;;23.69;21.31;;;;;;;4.56;67.03;102500.69;470955;112;922914;-77
2022/10/18 03:40:55;;;;;;;26.23;23.69;;;;;;;4.56;67.12;102495.28;470905;112;923089;-77
2022/10/18 03:41:58;;;;;;;29.46;22.44;;;;;;;4.57;66.99;102498.84;470988;112;922526;-78
2022/10/18 03:43:01;;;;;;;25.16;22.85;;;;;;;4.56;67.09;102497.13;472490;111;922661;-77
2022/10/18 03:44:04;;;;;;;24.33;21.90;;;;;;;4.55;66.99;102501.66;475396;111;922492;-76
2022/10/18 03:45:08;;;;;;;23.83;21.61;;;;;;;4.55;67.11;102507.06;475399;111;922446;-77
2022/10/18 03:46:11;;;;;;;25.27;22.85;;;;;;;4.55;67.00;102511.61;475246;111;922645;-77
2022/10/18 03:47:14;;;;;;;25.01;22.39;;;;;;;4.56;67.10;102516.03;475293;111;922959;-77
2022/10/18 03:48:18;;;;;;;25.07;22.90;;;;;;;4.54;67.03;102505.34;475320;111;922531;-78
2022/10/18 03:49:21;;;;;;;24.84;22.27;;;;;;;4.54;66.94;102518.85;475364;111;922684;-76
2022/10/18 03:50:24;;;;;;;24.79;22.36;;;;;;;4.54;66.95;102515.29;475361;111;922835;-77
2022/10/18 03:51:27;;;;;;;24.80;22.49;;;;;;;4.53;66.94;102514.43;475336;111;922544;-78
2022/10/18 03:52:30;;;;;;;23.76;21.61;;;;;;;4.53;66.98;102514.43;475406;111;922837;-76
2022/10/18 03:53:33;;;;;;;23.69;21.27;;;;;;;4.53;67.12;102518.97;475308;111;922751;-78
2022/10/18 03:54:36;;;;;;;25.01;22.71;;;;;;;4.53;67.17;102498.22;475304;111;930513;-76
2022/10/18 03:55:40;;;;;;;26.29;23.31;;;;;;;4.53;67.10;102497.36;475352;111;922518;-77
2022/10/18 03:56:43;;;;;;;23.56;21.07;;;;;;;4.54;67.16;102496.38;475225;111;922681;-78
2022/10/18 03:57:46;;;;;;;24.57;22.32;;;;;;;4.55;67.25;102498.10;475374;111;922919;-78
2022/10/18 03:58:49;;;;;;;24.63;21.74;;;;;;;4.56;67.31;102487.17;475364;111;922497;-77
2022/10/18 03:59:52;;;;;;;23.32;21.21;;;;;;;4.57;67.32;102488.89;475313;111;922427;-76
2022/10/18 04:00:55;;;;;;;23.59;21.48;;;;;;;4.59;67.18;102499.55;475293;111;922787;-77
2022/10/18 04:01:58;;;;;;;25.32;22.82;;;;;;;4.58;67.14;102498.69;475433;111;922936;-76
2022/10/18 04:03:01;;;;;;;22.73;20.76;;;;;;;4.58;67.03;102501.39;475297;111;922824;-77
2022/10/18 04:04:04;;;;;;;24.77;21.74;;;;;;;4.57;67.10;102507.80;475331;111;922838;-76
2022/10/18 04:05:08;;;;;;;23.02;20.96;;;;;;;4.57;66.94;102506.95;475320;111;922435;-76
2022/10/18 04:06:12;;;;;;;25.42;22.83;;;;;;;4.56;66.95;102508.78;475356;111;922475;-77
2022/10/18 04:07:15;;;;;;;26.35;21.84;;;;;;;4.54;66.91;102502.64;475425;111;922387;-76
2022/10/18 04:08:18;;;;;;;23.97;21.85;;;;;;;4.53;66.95;102511.73;475424;111;922964;-77
2022/10/18 04:09:21;;;;;;;24.40;22.22;;;;;;;4.54;67.00;102509.89;475311;111;922521;-77
2022/10/18 04:10:24;;;;;;;26.00;22.60;;;;;;;4.54;67.01;102502.64;475299;111;930405;-78
2022/10/18 04:11:27;;;;;;;22.77;20.87;;;;;;;4.54;67.10;102502.64;475273;111;922855;-78
2022/10/18 04:12:30;;;;;;;22.90;20.94;;;;;;;4.55;67.09;102498.96;475487;111;922343;-77
2022/10/18 04:13:34;;;;;;;23.12;21.27;;;;;;;4.56;66.98;102513.33;475797;111;922539;-77
2022/10/18 04:14:37;;;;;;;23.30;21.20;;;;;;;4.56;66.98;102507.92;475747;111;923079;-77
2022/10/18 04:15:40;;;;;;;22.91;20.87;;;;;;;4.56;66.99;102507.92;475630;111;922618;-76
2022/10/18 04:16:43;;;;;;;23.40;21.36;;;;;;;4.58;67.00;102519.44;474158;111;922279;-76
2022/10/18 04:17:46;;;;;;;23.22;20.78;;;;;;;4.59;67.09;102507.66;473501;112;922843;-76
2022/10/18 04:18:49;;;;;;;21.76;19.82;;;;;;;4.60;67.10;102503.97;473446;112;922522;-78
2022/10/18 04:19:52;;;;;;;23.06;20.71;;;;;;;4.63;67.07;102505.58;473428;112;922569;-77
2022/10/18 04:20:55;;;;;;;22.93;20.89;;;;;;;4.65;67.17;102514.39;473442;112;922983;-77
2022/10/18 04:21:58;;;;;;;25.39;20.56;;;;;;;4.67;67.10;102512.42;473479;112;922488;-77
2022/10/18 04:23:01;;;;;;;22.70;20.59;;;;;;;4.69;67.22;102511.29;473420;112;922552;-77
2022/10/18 04:24:04;;;;;;;22.26;20.09;;;;;;;4.70;67.12;102513.02;473405;112;922485;-77
2022/10/18 04:25:08;;;;;;;22.32;20.48;;;;;;;4.72;67.11;102504.78;473347;112;922521;-79
2022/10/18 04:26:11;;;;;;;20.80;19.09;;;;;;;4.76;67.07;102506.23;473217;112;930656;-79
2022/10/18 04:27:14;;;;;;;21.65;19.82;;;;;;;4.77;67.04;102508.81;473440;112;922395;-76
2022/10/18 04:28:17;;;;;;;21.43;19.36;;;;;;;4.79;67.09;102501.45;473451;112;922737;-77
2022/10/18 04:29:20;;;;;;;22.05;20.03;;;;;;;4.82;67.04;102511.12;473481;112;922855;-77
2022/10/18 04:30:23;;;;;;;22.46;20.44;;;;;;;4.84;67.00;102515.42;463521;112;922514;-77
2022/10/18 04:31:26;;;;;;;22.49;20.34;;;;;;;4.86;66.95;102504.45;461879;113;922889;-77
2022/10/18 04:32:29;;;;;;;21.77;19.82;;;;;;;4.88;66.91;102508.75;467447;112;922510;-77
2022/10/18 04:33:33;;;;;;;22.87;20.97;;;;;;;4.90;66.88;102498.69;467464;113;922613;-77
2022/10/18 04:34:36;;;;;;;23.91;21.73;;;;;;;4.92;66.80;102495.83;458540;115;922471;-78
2022/10/18 04:35:39;;;;;;;24.46;22.06;;;;;;;4.94;66.71;102496.56;458577;115;922855;-78
2022/10/18 04:36:42;;;;;;;23.81;21.81;;;;;;;4.95;66.74;102496.44;458535;115;922833;-76
2022/10/18 04:37:45;;;;;;;25.84;23.33;;;;;;;4.96;66.63;102492.72;450110;118;922513;-77
2022/10/18 04:38:48;;;;;;;26.87;24.21;;;;;;;4.97;66.66;102490.87;449626;117;922343;-77
2022/10/18 04:39:51;;;;;;;27.44;24.79;;;;;;;4.98;66.63;102496.16;449190;118;922485;-77
2022/10/18 04:40:56;;;;;;;25.55;22.99;;;;;;;4.99;66.68;102492.47;450180;118;922500;-77
2022/10/18 04:41:59;;;;;;;26.25;23.93;;;;;;;5.02;66.63;102499.45;458528;115;930255;-78
2022/10/18 04:43:02;;;;;;;24.01;21.96;;;;;;;5.04;66.66;102494.78;458534;115;923004;-78
2022/10/18 04:44:05;;;;;;;23.37;21.51;;;;;;;5.07;66.71;102499.08;450270;118;922925;-78
2022/10/18 04:45:09;;;;;;;24.89;22.64;;;;;;;5.07;66.73;102491.83;458611;115;922671;-77
2022/10/18 04:46:12;;;;;;;24.25;22.17;;;;;;;5.09;66.75;102487.13;458451;115;922579;-76
2022/10/18 04:47:16;;;;;;;23.67;21.01;;;;;;;5.11;66.81;102487.86;450243;118;922548;-76
2022/10/18 04:48:19;;;;;;;23.82;21.54;;;;;;;5.13;66.72;102487.73;458528;115;922531;-77
2022/10/18 04:49:22;;;;;;;22.93;20.86;;;;;;;5.13;66.74;102488.56;458512;115;922534;-76
2022/10/18 04:50:25;;;;;;;24.02;21.62;;;;;;;5.14;66.65;102490.28;450275;118;922899;-76
2022/10/18 04:51:29;;;;;;;22.03;19.96;;;;;;;5.14;66.60;102490.28;459083;114;922534;-77
2022/10/18 04:52:32;;;;;;;22.25;20.38;;;;;;;5.14;66.68;102478.61;463711;114;922848;-76
2022/10/18 04:53:35;;;;;;;22.13;20.34;;;;;;;5.13;66.59;102479.62;463809;114;922866;-76
2022/10/18 04:54:38;;;;;;;21.78;19.81;;;;;;;5.13;66.53;102480.45;463798;114;922609;-76
2022/10/18 04:55:49;;;;;;;21.61;19.68;;;;;;;5.13;66.64;102488.56;463756;114;922504;-75
2022/10/18 04:56:52;;;;;;;20.82;19.01;;;;;;;5.14;66.68;102487.58;463626;114;922911;-77
2022/10/18 04:57:55;;;;;;;21.89;19.71;;;;;;;5.14;66.70;102484.02;463814;114;922480;-77